^^
Saratoga-Weather Station Historical Data
Daily Summary for May 26, 2020 Units:  Both    English   Metric
Daily Weekly Monthly Yearly Custom
  High: Low: Average:
Temperature: 85.1 °F /  29.5 °C 60.6 °F /  15.9 °C 70.3 °F /  21.3 °C
Dew Point: 69.4 °F /  20.8 °C 56.5 °F /  13.6 °C 62.6 °F /  17 °C
Humidity: 95% 58% 77%
Wind Speed: 11mph /  17.7km/h - 1.1mph /  1.8km/h
Wind Gust: 17mph /  27.4km/h - -
Wind- - South
Pressure: 29.9 in /  1013.2 hPa 29.8 in /  1009.1 hPa -
Precipitation: 0.04 in /  1.0 mm    
Historical Graphs
 
 
Tabular Data for May 26, 2020
Time Temperature Dew Point Pressure Wind Wind Speed Wind Gust Humidity Rainfall Rate (Hourly) solar
00:03 69.1 °F /  20.6 °C 60.4 °F /  15.8 °C 29.9in /  1013.2hPa Calm   2mph /  3.2km/h 74% 0in /  0.0mm 0 W/m2
00:08 68.9 °F /  20.5 °C 60.3 °F /  15.7 °C 29.9in /  1013.2hPa Calm   2mph /  3.2km/h 74% 0in /  0.0mm 0 W/m2
00:13 69.1 °F /  20.6 °C 60.4 °F /  15.8 °C 29.9in /  1013.2hPa Calm   2mph /  3.2km/h 74% 0in /  0.0mm 0 W/m2
00:18 68.9 °F /  20.5 °C 60.3 °F /  15.7 °C 29.9in /  1013.2hPa Calm   2mph /  3.2km/h 74% 0in /  0.0mm 0 W/m2
00:23 68.5 °F /  20.3 °C 60.3 °F /  15.7 °C 29.9in /  1012.9hPa SSE 2mph /  3.2km/h 2mph /  3.2km/h 75% 0in /  0.0mm 0 W/m2
00:28 68.2 °F /  20.1 °C 59.9 °F /  15.5 °C 29.9in /  1013.2hPa Calm   1mph /  1.6km/h 75% 0in /  0.0mm 0 W/m2
00:33 67.8 °F /  19.9 °C 59.5 °F /  15.3 °C 29.9in /  1012.9hPa Calm     75% 0in /  0.0mm 0 W/m2
00:38 67.6 °F /  19.8 °C 59.7 °F /  15.4 °C 29.9in /  1013.2hPa SSE 0.9mph /  1.4km/h 2mph /  3.2km/h 76% 0in /  0.0mm 0 W/m2
00:43 67.5 °F /  19.7 °C 59.5 °F /  15.3 °C 29.9in /  1013.2hPa SSE 0.9mph /  1.4km/h 1mph /  1.6km/h 76% 0in /  0.0mm 0 W/m2
00:48 67.3 °F /  19.6 °C 59.5 °F /  15.3 °C 29.9in /  1013.2hPa Calm   1mph /  1.6km/h 76% 0in /  0.0mm 0 W/m2
00:53 66.9 °F /  19.4 °C 59.5 °F /  15.3 °C 29.9in /  1013.2hPa Calm   2mph /  3.2km/h 77% 0in /  0.0mm 0 W/m2
00:58 66.7 °F /  19.3 °C 59.7 °F /  15.4 °C 29.9in /  1013.2hPa Calm     78% 0in /  0.0mm 0 W/m2
01:04 66.6 °F /  19.2 °C 59.5 °F /  15.3 °C 29.9in /  1013.2hPa Calm   2mph /  3.2km/h 78% 0in /  0.0mm 0 W/m2
01:09 66.2 °F /  19 °C 59.2 °F /  15.1 °C 29.9in /  1013.2hPa Calm     78% 0in /  0.0mm 0 W/m2
01:14 66 °F /  18.9 °C 59.4 °F /  15.2 °C 29.9in /  1012.9hPa SSE 0.9mph /  1.4km/h 1mph /  1.6km/h 79% 0in /  0.0mm 0 W/m2
01:19 65.8 °F /  18.8 °C 59.2 °F /  15.1 °C 29.9in /  1012.9hPa Calm   1mph /  1.6km/h 79% 0in /  0.0mm 0 W/m2
01:24 65.7 °F /  18.7 °C 59.4 °F /  15.2 °C 29.9in /  1013.2hPa Calm     80% 0in /  0.0mm 0 W/m2
01:29 65.5 °F /  18.6 °C 59.2 °F /  15.1 °C 29.9in /  1012.9hPa Calm     80% 0in /  0.0mm 0 W/m2
01:34 65.3 °F /  18.5 °C 59 °F /  15 °C 29.9in /  1012.9hPa Calm     80% 0in /  0.0mm 0 W/m2
01:39 65.1 °F /  18.4 °C 58.8 °F /  14.9 °C 29.9in /  1013.2hPa Calm     80% 0in /  0.0mm 0 W/m2
01:44 64.9 °F /  18.3 °C 58.6 °F /  14.8 °C 29.9in /  1012.9hPa Calm     80% 0in /  0.0mm 0 W/m2
01:49 64.9 °F /  18.3 °C 58.6 °F /  14.8 °C 29.9in /  1012.9hPa Calm     80% 0in /  0.0mm 0 W/m2
01:54 64.8 °F /  18.2 °C 58.8 °F /  14.9 °C 29.9in /  1012.9hPa Calm     81% 0in /  0.0mm 0 W/m2
01:59 64.6 °F /  18.1 °C 58.6 °F /  14.8 °C 29.9in /  1012.9hPa Calm     81% 0in /  0.0mm 0 W/m2
02:04 64.4 °F /  18 °C 58.5 °F /  14.7 °C 29.9in /  1012.9hPa Calm     81% 0in /  0.0mm 0 W/m2
02:09 64.2 °F /  17.9 °C 58.3 °F /  14.6 °C 29.9in /  1012.9hPa Calm     81% 0in /  0.0mm 0 W/m2
02:14 64.2 °F /  17.9 °C 58.3 °F /  14.6 °C 29.9in /  1012.9hPa Calm     81% 0in /  0.0mm 0 W/m2
02:19 64 °F /  17.8 °C 58.5 °F /  14.7 °C 29.9in /  1012.5hPa Calm     82% 0in /  0.0mm 0 W/m2
02:24 63.9 °F /  17.7 °C 58.3 °F /  14.6 °C 29.9in /  1012.5hPa Calm     82% 0in /  0.0mm 0 W/m2
02:29 63.7 °F /  17.6 °C 58.1 °F /  14.5 °C 29.9in /  1012.5hPa Calm     82% 0in /  0.0mm 0 W/m2
02:34 63.7 °F /  17.6 °C 58.1 °F /  14.5 °C 29.9in /  1012.5hPa Calm     82% 0in /  0.0mm 0 W/m2
02:39 63.3 °F /  17.4 °C 58.1 °F /  14.5 °C 29.9in /  1012.2hPa Calm     83% 0in /  0.0mm 0 W/m2
02:44 63.1 °F /  17.3 °C 57.9 °F /  14.4 °C 29.9in /  1012.2hPa Calm     83% 0in /  0.0mm 0 W/m2
02:49 63.1 °F /  17.3 °C 57.9 °F /  14.4 °C 29.9in /  1012.2hPa Calm     83% 0in /  0.0mm 0 W/m2
02:54 63 °F /  17.2 °C 58.1 °F /  14.5 °C 29.9in /  1012.2hPa Calm     84% 0in /  0.0mm 0 W/m2
02:59 62.8 °F /  17.1 °C 57.9 °F /  14.4 °C 29.9in /  1012.2hPa Calm     84% 0in /  0.0mm 0 W/m2
03:04 62.8 °F /  17.1 °C 57.9 °F /  14.4 °C 29.9in /  1012.2hPa Calm     84% 0in /  0.0mm 0 W/m2
03:09 62.6 °F /  17 °C 57.7 °F /  14.3 °C 29.9in /  1012.2hPa Calm     84% 0in /  0.0mm 0 W/m2
03:14 62.4 °F /  16.9 °C 57.6 °F /  14.2 °C 29.9in /  1011.9hPa Calm     84% 0in /  0.0mm 0 W/m2
03:19 62.4 °F /  16.9 °C 57.6 °F /  14.2 °C 29.9in /  1011.9hPa SSE 0.9mph /  1.4km/h 1mph /  1.6km/h 84% 0in /  0.0mm 0 W/m2
03:24 62.2 °F /  16.8 °C 57.7 °F /  14.3 °C 29.9in /  1011.9hPa Calm   1mph /  1.6km/h 85% 0in /  0.0mm 0 W/m2
03:29 62.2 °F /  16.8 °C 57.7 °F /  14.3 °C 29.9in /  1011.9hPa SSE 0.9mph /  1.4km/h 1mph /  1.6km/h 85% 0in /  0.0mm 0 W/m2
03:34 62.2 °F /  16.8 °C 57.7 °F /  14.3 °C 29.9in /  1011.9hPa Calm     85% 0in /  0.0mm 0 W/m2
03:39 62.2 °F /  16.8 °C 57.4 °F /  14.1 °C 29.9in /  1011.9hPa SSE 2mph /  3.2km/h 2mph /  3.2km/h 84% 0in /  0.0mm 0 W/m2
03:44 62.1 °F /  16.7 °C 57.2 °F /  14 °C 29.9in /  1011.9hPa SSE 0.9mph /  1.4km/h 2mph /  3.2km/h 84% 0in /  0.0mm 0 W/m2
03:49 62.1 °F /  16.7 °C 57.2 °F /  14 °C 29.9in /  1011.9hPa SSE 0.9mph /  1.4km/h 1mph /  1.6km/h 84% 0in /  0.0mm 0 W/m2
03:54 62.1 °F /  16.7 °C 57.2 °F /  14 °C 29.9in /  1011.9hPa Calm   2mph /  3.2km/h 84% 0in /  0.0mm 0 W/m2
03:59 61.9 °F /  16.6 °C 57 °F /  13.9 °C 29.9in /  1011.9hPa Calm     84% 0in /  0.0mm 0 W/m2
04:04 61.9 °F /  16.6 °C 57 °F /  13.9 °C 29.9in /  1011.9hPa Calm     84% 0in /  0.0mm 0 W/m2
04:09 61.9 °F /  16.6 °C 57.4 °F /  14.1 °C 29.9in /  1011.9hPa Calm     85% 0in /  0.0mm 0 W/m2
04:14 61.9 °F /  16.6 °C 57.4 °F /  14.1 °C 29.9in /  1011.9hPa Calm     85% 0in /  0.0mm 0 W/m2
04:19 61.7 °F /  16.5 °C 57.2 °F /  14 °C 29.9in /  1011.9hPa Calm     85% 0in /  0.0mm 0 W/m2
04:24 61.7 °F /  16.5 °C 57.2 °F /  14 °C 29.9in /  1011.9hPa Calm     85% 0in /  0.0mm 0 W/m2
04:29 61.5 °F /  16.4 °C 57 °F /  13.9 °C 29.9in /  1011.9hPa SSE 0.9mph /  1.4km/h 1mph /  1.6km/h 85% 0in /  0.0mm 0 W/m2
04:34 61.5 °F /  16.4 °C 57 °F /  13.9 °C 29.9in /  1011.5hPa Calm   1mph /  1.6km/h 85% 0in /  0.0mm 0 W/m2
04:40 61.5 °F /  16.4 °C 57 °F /  13.9 °C 29.9in /  1011.5hPa Calm     85% 0in /  0.0mm 0 W/m2
04:45 61.3 °F /  16.3 °C 56.8 °F /  13.8 °C 29.9in /  1011.5hPa Calm     85% 0in /  0.0mm 0 W/m2
04:50 61.3 °F /  16.3 °C 56.8 °F /  13.8 °C 29.9in /  1011.5hPa Calm     85% 0in /  0.0mm 0 W/m2
04:55 61.3 °F /  16.3 °C 56.8 °F /  13.8 °C 29.9in /  1011.5hPa Calm     85% 0in /  0.0mm 0 W/m2
05:00 61.2 °F /  16.2 °C 56.7 °F /  13.7 °C 29.9in /  1011.2hPa Calm     85% 0in /  0.0mm 0 W/m2
05:05 61 °F /  16.1 °C 56.8 °F /  13.8 °C 29.9in /  1011.2hPa Calm     86% 0in /  0.0mm 0 W/m2
05:10 61 °F /  16.1 °C 56.8 °F /  13.8 °C 29.9in /  1011.2hPa Calm     86% 0in /  0.0mm 0 W/m2
05:15 61 °F /  16.1 °C 56.8 °F /  13.8 °C 29.9in /  1011.2hPa Calm     86% 0in /  0.0mm 0 W/m2
05:20 60.8 °F /  16 °C 56.7 °F /  13.7 °C 29.9in /  1011.2hPa Calm     86% 0in /  0.0mm 0 W/m2
05:25 60.8 °F /  16 °C 56.7 °F /  13.7 °C 29.9in /  1011.2hPa Calm   1mph /  1.6km/h 86% 0in /  0.0mm 0 W/m2
05:30 60.6 °F /  15.9 °C 56.5 °F /  13.6 °C 29.9in /  1011.2hPa Calm     86% 0in /  0.0mm 0 W/m2
05:35 60.6 °F /  15.9 °C 56.5 °F /  13.6 °C 29.9in /  1011.2hPa Calm     86% 0in /  0.0mm 5 W/m2
05:41 60.6 °F /  15.9 °C 56.7 °F /  13.7 °C 29.9in /  1011.2hPa SSE 0.9mph /  1.4km/h 1mph /  1.6km/h 87% 0in /  0.0mm 7 W/m2
05:46 60.6 °F /  15.9 °C 56.7 °F /  13.7 °C 29.9in /  1011.2hPa Calm     87% 0in /  0.0mm 11 W/m2
05:51 60.6 °F /  15.9 °C 56.7 °F /  13.7 °C 29.9in /  1011.2hPa Calm     87% 0in /  0.0mm 12 W/m2
05:56 61 °F /  16.1 °C 57 °F /  13.9 °C 29.9in /  1011.2hPa Calm     87% 0in /  0.0mm 14 W/m2
06:01 61 °F /  16.1 °C 56.8 °F /  13.8 °C 29.9in /  1011.5hPa Calm     86% 0in /  0.0mm 18 W/m2
06:06 61 °F /  16.1 °C 56.8 °F /  13.8 °C 29.9in /  1011.5hPa Calm     86% 0in /  0.0mm 19 W/m2
06:11 61.2 °F /  16.2 °C 57 °F /  13.9 °C 29.9in /  1011.5hPa Calm     86% 0in /  0.0mm 21 W/m2
06:16 61.3 °F /  16.3 °C 57.2 °F /  14 °C 29.9in /  1011.2hPa Calm     86% 0in /  0.0mm 23 W/m2
06:21 61.7 °F /  16.5 °C 57.2 °F /  14 °C 29.9in /  1011.2hPa SSE 0.9mph /  1.4km/h 1mph /  1.6km/h 85% 0in /  0.0mm 25 W/m2
06:26 62.1 °F /  16.7 °C 57.2 °F /  14 °C 29.9in /  1011.2hPa Calm     84% 0in /  0.0mm 28 W/m2
06:31 62.4 °F /  16.9 °C 57.2 °F /  14 °C 29.9in /  1011.2hPa NE 0.9mph /  1.4km/h 2mph /  3.2km/h 83% 0in /  0.0mm 32 W/m2
06:36 63 °F /  17.2 °C 57.4 °F /  14.1 °C 29.9in /  1011.5hPa Calm     82% 0in /  0.0mm 44 W/m2
06:41 63.3 °F /  17.4 °C 57.4 °F /  14.1 °C 29.9in /  1011.5hPa ENE 0.9mph /  1.4km/h 2mph /  3.2km/h 81% 0in /  0.0mm 51 W/m2
06:46 63.9 °F /  17.7 °C 57.6 °F /  14.2 °C 29.9in /  1011.5hPa Calm   2mph /  3.2km/h 80% 0in /  0.0mm 44 W/m2
06:51 64.2 °F /  17.9 °C 57.6 °F /  14.2 °C 29.9in /  1011.5hPa ENE 0.9mph /  1.4km/h 1mph /  1.6km/h 79% 0in /  0.0mm 40 W/m2
06:56 64.6 °F /  18.1 °C 57.6 °F /  14.2 °C 29.9in /  1011.5hPa ENE 0.9mph /  1.4km/h 2mph /  3.2km/h 78% 0in /  0.0mm 42 W/m2
07:01 64.8 °F /  18.2 °C 57.7 °F /  14.3 °C 29.9in /  1011.2hPa Calm   1mph /  1.6km/h 78% 0in /  0.0mm 42 W/m2
07:06 64.9 °F /  18.3 °C 57.9 °F /  14.4 °C 29.9in /  1011.5hPa NE 0.9mph /  1.4km/h 2mph /  3.2km/h 78% 0in /  0.0mm 42 W/m2
07:11 64.9 °F /  18.3 °C 57.6 °F /  14.2 °C 29.9in /  1011.5hPa East 2mph /  3.2km/h 3mph /  4.8km/h 77% 0in /  0.0mm 44 W/m2
07:16 65.1 °F /  18.4 °C 57.7 °F /  14.3 °C 29.9in /  1011.5hPa East 0.9mph /  1.4km/h 2mph /  3.2km/h 77% 0in /  0.0mm 46 W/m2
07:26 65.7 °F /  18.7 °C 57.9 °F /  14.4 °C 29.9in /  1011.9hPa Calm   2mph /  3.2km/h 76% 0in /  0.0mm 47 W/m2
07:31 65.7 °F /  18.7 °C 57.6 °F /  14.2 °C 29.9in /  1011.5hPa NE 2mph /  3.2km/h 2mph /  3.2km/h 75% 0in /  0.0mm 49 W/m2
07:36 65.8 °F /  18.8 °C 57.7 °F /  14.3 °C 29.9in /  1011.5hPa Calm   3mph /  4.8km/h 75% 0in /  0.0mm 49 W/m2
07:41 66 °F /  18.9 °C 57.9 °F /  14.4 °C 29.9in /  1011.5hPa ENE 2mph /  3.2km/h 3mph /  4.8km/h 75% 0in /  0.0mm 121 W/m2
07:47 66.4 °F /  19.1 °C 58.3 °F /  14.6 °C 29.9in /  1011.5hPa ENE 2mph /  3.2km/h 4mph /  6.4km/h 75% 0in /  0.0mm 230 W/m2
07:52 66.7 °F /  19.3 °C 58.1 °F /  14.5 °C 29.9in /  1011.2hPa NW 0.9mph /  1.4km/h 3mph /  4.8km/h 74% 0in /  0.0mm 243 W/m2
07:57 67.5 °F /  19.7 °C 58.8 °F /  14.9 °C 29.9in /  1011.2hPa East 0.9mph /  1.4km/h 4mph /  6.4km/h 74% 0in /  0.0mm 257 W/m2
08:02 68.2 °F /  20.1 °C 58.8 °F /  14.9 °C 29.9in /  1011.5hPa ENE 2mph /  3.2km/h 4mph /  6.4km/h 72% 0in /  0.0mm 267 W/m2
08:07 68.7 °F /  20.4 °C 59 °F /  15 °C 29.9in /  1011.2hPa ESE 2mph /  3.2km/h 3mph /  4.8km/h 71% 0in /  0.0mm 279 W/m2
08:12 69.4 °F /  20.8 °C 59.2 °F /  15.1 °C 29.9in /  1011.2hPa NNE 0.9mph /  1.4km/h 5mph /  8km/h 70% 0in /  0.0mm 258 W/m2
08:17 69.4 °F /  20.8 °C 58.8 °F /  14.9 °C 29.9in /  1011.2hPa ENE 2mph /  3.2km/h 4mph /  6.4km/h 69% 0in /  0.0mm 130 W/m2
08:22 69.8 °F /  21 °C 59.2 °F /  15.1 °C 29.9in /  1011.2hPa NE 0.9mph /  1.4km/h 3mph /  4.8km/h 69% 0in /  0.0mm 69 W/m2
08:27 70.2 °F /  21.2 °C 59.2 °F /  15.1 °C 29.9in /  1011.2hPa NE 2.9mph /  4.7km/h 4mph /  6.4km/h 68% 0in /  0.0mm 69 W/m2
08:32 70.3 °F /  21.3 °C 59.4 °F /  15.2 °C 29.9in /  1011.2hPa ENE 2.9mph /  4.7km/h 3mph /  4.8km/h 68% 0in /  0.0mm 70 W/m2
08:37 70.5 °F /  21.4 °C 59.4 °F /  15.2 °C 29.9in /  1011.5hPa NE 2.9mph /  4.7km/h 3mph /  4.8km/h 68% 0in /  0.0mm 70 W/m2
08:42 71.1 °F /  21.7 °C 59.9 °F /  15.5 °C 29.9in /  1011.2hPa Calm   6mph /  9.7km/h 68% 0in /  0.0mm 74 W/m2
08:47 71.2 °F /  21.8 °C 60.1 °F /  15.6 °C 29.9in /  1011.2hPa East 0.9mph /  1.4km/h 3mph /  4.8km/h 68% 0in /  0.0mm 74 W/m2
08:52 71.4 °F /  21.9 °C 59.9 °F /  15.5 °C 29.9in /  1011.2hPa ENE 2mph /  3.2km/h 4mph /  6.4km/h 67% 0in /  0.0mm 72 W/m2
08:57 71.8 °F /  22.1 °C 60.3 °F /  15.7 °C 29.9in /  1011.2hPa ENE 0.9mph /  1.4km/h 2mph /  3.2km/h 67% 0in /  0.0mm 72 W/m2
09:02 72 °F /  22.2 °C 59.9 °F /  15.5 °C 29.9in /  1011.2hPa ESE 2mph /  3.2km/h 5mph /  8km/h 66% 0in /  0.0mm 104 W/m2
09:07 72 °F /  22.2 °C 59.9 °F /  15.5 °C 29.9in /  1011.2hPa East 2mph /  3.2km/h 5mph /  8km/h 66% 0in /  0.0mm 220 W/m2
09:12 72.1 °F /  22.3 °C 60.1 °F /  15.6 °C 29.9in /  1011.2hPa ENE 2.9mph /  4.7km/h 3mph /  4.8km/h 66% 0in /  0.0mm 295 W/m2
09:17 72.3 °F /  22.4 °C 60.3 °F /  15.7 °C 29.9in /  1011.2hPa ESE 4mph /  6.4km/h 5mph /  8km/h 66% 0in /  0.0mm 446 W/m2
09:22 72.9 °F /  22.7 °C 60.8 °F /  16 °C 29.9in /  1011.2hPa East 0.9mph /  1.4km/h 2mph /  3.2km/h 66% 0in /  0.0mm 466 W/m2
09:27 73 °F /  22.8 °C 60.6 °F /  15.9 °C 29.9in /  1011.2hPa NE 0.9mph /  1.4km/h 4mph /  6.4km/h 65% 0in /  0.0mm 531 W/m2
09:32 73.2 °F /  22.9 °C 60.8 °F /  16 °C 29.9in /  1011.2hPa SE 0.9mph /  1.4km/h 2mph /  3.2km/h 65% 0in /  0.0mm 608 W/m2
09:37 73.2 °F /  22.9 °C 61.2 °F /  16.2 °C 29.9in /  1011.2hPa ENE 2.9mph /  4.7km/h 3mph /  4.8km/h 66% 0in /  0.0mm 181 W/m2
09:42 73 °F /  22.8 °C 60.6 °F /  15.9 °C 29.9in /  1011.2hPa Calm   3mph /  4.8km/h 65% 0in /  0.0mm 188 W/m2
09:48 73.2 °F /  22.9 °C 61.2 °F /  16.2 °C 29.9in /  1011.5hPa ENE 0.9mph /  1.4km/h 2mph /  3.2km/h 66% 0in /  0.0mm 343 W/m2
09:53 73.2 °F /  22.9 °C 60.8 °F /  16 °C 29.9in /  1011.9hPa NE 2mph /  3.2km/h 3mph /  4.8km/h 65% 0in /  0.0mm 248 W/m2
09:58 73 °F /  22.8 °C 61 °F /  16.1 °C 29.9in /  1011.5hPa ENE 0.9mph /  1.4km/h 3mph /  4.8km/h 66% 0in /  0.0mm 376 W/m2
10:03 73.4 °F /  23 °C 61.7 °F /  16.5 °C 29.9in /  1011.5hPa ENE 2mph /  3.2km/h 2mph /  3.2km/h 67% 0in /  0.0mm 260 W/m2
10:08 73.6 °F /  23.1 °C 61.5 °F /  16.4 °C 29.9in /  1011.2hPa Calm   1mph /  1.6km/h 66% 0in /  0.0mm 234 W/m2
10:13 73.9 °F /  23.3 °C 61.9 °F /  16.6 °C 29.9in /  1011.2hPa East 2.9mph /  4.7km/h 3mph /  4.8km/h 66% 0in /  0.0mm 130 W/m2
10:18 74.3 °F /  23.5 °C 61.3 °F /  16.3 °C 29.9in /  1011.2hPa SE 0.9mph /  1.4km/h 2mph /  3.2km/h 64% 0in /  0.0mm 169 W/m2
10:23 74.8 °F /  23.8 °C 62.8 °F /  17.1 °C 29.9in /  1011.2hPa South 0.9mph /  1.4km/h 2mph /  3.2km/h 66% 0in /  0.0mm 598 W/m2
10:28 75.4 °F /  24.1 °C 62.8 °F /  17.1 °C 29.9in /  1011.2hPa WNW 2.9mph /  4.7km/h 3mph /  4.8km/h 65% 0in /  0.0mm 610 W/m2
10:33 75.6 °F /  24.2 °C 62.1 °F /  16.7 °C 29.9in /  1011.2hPa West 2mph /  3.2km/h 3mph /  4.8km/h 63% 0in /  0.0mm 624 W/m2
10:38 75.7 °F /  24.3 °C 62.2 °F /  16.8 °C 29.9in /  1010.8hPa ESE 2mph /  3.2km/h 2mph /  3.2km/h 63% 0in /  0.0mm 640 W/m2
10:43 76.5 °F /  24.7 °C 63 °F /  17.2 °C 29.9in /  1010.8hPa ESE 0.9mph /  1.4km/h 3mph /  4.8km/h 63% 0in /  0.0mm 652 W/m2
10:48 76.8 °F /  24.9 °C 63.3 °F /  17.4 °C 29.9in /  1010.8hPa NNE 2mph /  3.2km/h 2mph /  3.2km/h 63% 0in /  0.0mm 663 W/m2
10:53 77.2 °F /  25.1 °C 62.6 °F /  17 °C 29.9in /  1010.8hPa West 4mph /  6.4km/h 7mph /  11.3km/h 61% 0in /  0.0mm 679 W/m2
10:58 76.8 °F /  24.9 °C 63.7 °F /  17.6 °C 29.9in /  1010.8hPa NNE 0.9mph /  1.4km/h 2mph /  3.2km/h 64% 0in /  0.0mm 684 W/m2
11:03 77 °F /  25 °C 63.5 °F /  17.5 °C 29.9in /  1010.8hPa ENE 2mph /  3.2km/h 7mph /  11.3km/h 63% 0in /  0.0mm 693 W/m2
11:08 77.5 °F /  25.3 °C 63.9 °F /  17.7 °C 29.9in /  1010.8hPa North 2.9mph /  4.7km/h 3mph /  4.8km/h 63% 0in /  0.0mm 703 W/m2
11:14 77.7 °F /  25.4 °C 63.7 °F /  17.6 °C 29.8in /  1010.5hPa WNW 0.9mph /  1.4km/h 4mph /  6.4km/h 62% 0in /  0.0mm 710 W/m2
11:19 77.9 °F /  25.5 °C 63.9 °F /  17.7 °C 29.8in /  1010.5hPa NNW 0.9mph /  1.4km/h 4mph /  6.4km/h 62% 0in /  0.0mm 721 W/m2
11:24 78.1 °F /  25.6 °C 64.4 °F /  18 °C 29.8in /  1010.5hPa WSW 2mph /  3.2km/h 4mph /  6.4km/h 63% 0in /  0.0mm 726 W/m2
11:29 78.3 °F /  25.7 °C 64.2 °F /  17.9 °C 29.8in /  1010.5hPa NNW 2mph /  3.2km/h 2mph /  3.2km/h 62% 0in /  0.0mm 735 W/m2
11:34 79 °F /  26.1 °C 64.8 °F /  18.2 °C 29.8in /  1010.5hPa NW 4mph /  6.4km/h 7mph /  11.3km/h 62% 0in /  0.0mm 744 W/m2
11:39 79.3 °F /  26.3 °C 65.1 °F /  18.4 °C 29.8in /  1010.5hPa North 2.9mph /  4.7km/h 3mph /  4.8km/h 62% 0in /  0.0mm 751 W/m2
11:44 79.7 °F /  26.5 °C 65.5 °F /  18.6 °C 29.8in /  1010.5hPa Calm   7mph /  11.3km/h 62% 0in /  0.0mm 756 W/m2
11:49 79.9 °F /  26.6 °C 65.3 °F /  18.5 °C 29.8in /  1010.5hPa NW 4mph /  6.4km/h 4mph /  6.4km/h 61% 0in /  0.0mm 770 W/m2
11:54 79.9 °F /  26.6 °C 65.3 °F /  18.5 °C 29.8in /  1010.5hPa NNE 4mph /  6.4km/h 4mph /  6.4km/h 61% 0in /  0.0mm 775 W/m2
11:59 80.1 °F /  26.7 °C 65.5 °F /  18.6 °C 29.8in /  1010.5hPa West 6mph /  9.7km/h 8mph /  12.9km/h 61% 0in /  0.0mm 782 W/m2
12:09 80.1 °F /  26.7 °C 65.8 °F /  18.8 °C 29.8in /  1010.5hPa NW 2mph /  3.2km/h 8mph /  12.9km/h 62% 0in /  0.0mm 786 W/m2
12:14 80.4 °F /  26.9 °C 66.2 °F /  19 °C 29.8in /  1010.5hPa NW 2mph /  3.2km/h 3mph /  4.8km/h 62% 0in /  0.0mm 796 W/m2
12:19 80.8 °F /  27.1 °C 66 °F /  18.9 °C 29.8in /  1010.5hPa NW 2mph /  3.2km/h 7mph /  11.3km/h 61% 0in /  0.0mm 805 W/m2
12:24 81 °F /  27.2 °C 66.2 °F /  19 °C 29.8in /  1010.5hPa NNW 0.9mph /  1.4km/h 4mph /  6.4km/h 61% 0in /  0.0mm 810 W/m2
12:29 81.1 °F /  27.3 °C 66.9 °F /  19.4 °C 29.8in /  1010.5hPa North 2mph /  3.2km/h 3mph /  4.8km/h 62% 0in /  0.0mm 817 W/m2
12:34 81.3 °F /  27.4 °C 67.1 °F /  19.5 °C 29.8in /  1010.5hPa West 0.9mph /  1.4km/h 2mph /  3.2km/h 62% 0in /  0.0mm 823 W/m2
12:39 82 °F /  27.8 °C 67.3 °F /  19.6 °C 29.8in /  1010.5hPa ESE 2mph /  3.2km/h 4mph /  6.4km/h 61% 0in /  0.0mm 831 W/m2
12:44 82.4 °F /  28 °C 66.6 °F /  19.2 °C 29.8in /  1010.2hPa West 0.9mph /  1.4km/h 3mph /  4.8km/h 59% 0in /  0.0mm 833 W/m2
12:49 82.2 °F /  27.9 °C 66.4 °F /  19.1 °C 29.8in /  1010.2hPa NE 0.9mph /  1.4km/h 5mph /  8km/h 59% 0in /  0.0mm 844 W/m2
12:54 82.2 °F /  27.9 °C 66.9 °F /  19.4 °C 29.8in /  1010.5hPa NNW 2.9mph /  4.7km/h 3mph /  4.8km/h 60% 0in /  0.0mm 861 W/m2
12:59 82.2 °F /  27.9 °C 66.9 °F /  19.4 °C 29.8in /  1010.5hPa SSW 0.9mph /  1.4km/h 4mph /  6.4km/h 60% 0in /  0.0mm 854 W/m2
13:04 82.6 °F /  28.1 °C 67.8 °F /  19.9 °C 29.8in /  1010.5hPa West 4mph /  6.4km/h 7mph /  11.3km/h 61% 0in /  0.0mm 886 W/m2
13:09 82.2 °F /  27.9 °C 66.4 °F /  19.1 °C 29.8in /  1010.5hPa WNW 2mph /  3.2km/h 9mph /  14.5km/h 59% 0in /  0.0mm 925 W/m2
13:14 81.7 °F /  27.6 °C 67.5 °F /  19.7 °C 29.8in /  1010.5hPa West 2.9mph /  4.7km/h 7mph /  11.3km/h 62% 0in /  0.0mm 954 W/m2
13:19 81.7 °F /  27.6 °C 67.5 °F /  19.7 °C 29.8in /  1010.5hPa West 6mph /  9.7km/h 10mph /  16.1km/h 62% 0in /  0.0mm 260 W/m2
13:24 81.9 °F /  27.7 °C 67.6 °F /  19.8 °C 29.8in /  1010.2hPa WNW 2mph /  3.2km/h 4mph /  6.4km/h 62% 0in /  0.0mm 998 W/m2
13:29 82 °F /  27.8 °C 67.3 °F /  19.6 °C 29.8in /  1010.5hPa Calm   10mph /  16.1km/h 61% 0in /  0.0mm 353 W/m2
13:34 82.2 °F /  27.9 °C 68.4 °F /  20.2 °C 29.8in /  1010.2hPa ESE 0.9mph /  1.4km/h 2mph /  3.2km/h 63% 0in /  0.0mm 610 W/m2
13:39 82.9 °F /  28.3 °C 68.5 °F /  20.3 °C 29.8in /  1010.2hPa SSE 0.9mph /  1.4km/h 6mph /  9.7km/h 62% 0in /  0.0mm 610 W/m2
13:44 83.1 °F /  28.4 °C 68.4 °F /  20.2 °C 29.8in /  1010.2hPa NW 4mph /  6.4km/h 7mph /  11.3km/h 61% 0in /  0.0mm 288 W/m2
13:49 82.8 °F /  28.2 °C 68 °F /  20 °C 29.8in /  1010.2hPa SW 0.9mph /  1.4km/h 8mph /  12.9km/h 61% 0in /  0.0mm 285 W/m2
13:54 82.2 °F /  27.9 °C 67.8 °F /  19.9 °C 29.8in /  1010.2hPa WNW 0.9mph /  1.4km/h 3mph /  4.8km/h 62% 0in /  0.0mm 601 W/m2
13:59 82.4 °F /  28 °C 68.5 °F /  20.3 °C 29.8in /  1010.2hPa Calm   8mph /  12.9km/h 63% 0in /  0.0mm 362 W/m2
14:04 82.6 °F /  28.1 °C 68.2 °F /  20.1 °C 29.8in /  1010.2hPa ENE 0.9mph /  1.4km/h 4mph /  6.4km/h 62% 0in /  0.0mm 279 W/m2
14:09 82.2 °F /  27.9 °C 67.5 °F /  19.7 °C 29.8in /  1010.2hPa NW 4.9mph /  7.9km/h 5mph /  8km/h 61% 0in /  0.0mm 306 W/m2
14:14 82 °F /  27.8 °C 66.7 °F /  19.3 °C 29.8in /  1010.2hPa WNW 2.9mph /  4.7km/h 6mph /  9.7km/h 60% 0in /  0.0mm 415 W/m2
14:19 82.2 °F /  27.9 °C 67.5 °F /  19.7 °C 29.8in /  1009.8hPa Calm   1mph /  1.6km/h 61% 0in /  0.0mm 462 W/m2
14:24 82.8 °F /  28.2 °C 68 °F /  20 °C 29.8in /  1009.8hPa WNW 2mph /  3.2km/h 3mph /  4.8km/h 61% 0in /  0.0mm 962 W/m2
14:29 83.5 °F /  28.6 °C 68.2 °F /  20.1 °C 29.8in /  1009.8hPa NNE 4mph /  6.4km/h 4mph /  6.4km/h 60% 0in /  0.0mm 831 W/m2
14:34 83.8 °F /  28.8 °C 69.4 °F /  20.8 °C 29.8in /  1009.5hPa NNW 2mph /  3.2km/h 3mph /  4.8km/h 62% 0in /  0.0mm 803 W/m2
14:39 84.4 °F /  29.1 °C 68.9 °F /  20.5 °C 29.8in /  1009.1hPa North 4.9mph /  7.9km/h 5mph /  8km/h 60% 0in /  0.0mm 788 W/m2
14:44 84.9 °F /  29.4 °C 69.4 °F /  20.8 °C 29.8in /  1009.1hPa East 4mph /  6.4km/h 4mph /  6.4km/h 60% 0in /  0.0mm 698 W/m2
14:49 85.1 °F /  29.5 °C 68.7 °F /  20.4 °C 29.8in /  1009.1hPa West 0.9mph /  1.4km/h 2mph /  3.2km/h 58% 0in /  0.0mm 789 W/m2
14:54 84.9 °F /  29.4 °C 68.5 °F /  20.3 °C 29.8in /  1009.1hPa East 0.9mph /  1.4km/h 2mph /  3.2km/h 58% 0in /  0.0mm 441 W/m2
14:59 84.7 °F /  29.3 °C 68.4 °F /  20.2 °C 29.8in /  1009.1hPa West 2.9mph /  4.7km/h 5mph /  8km/h 58% 0in /  0.0mm 438 W/m2
15:04 84.6 °F /  29.2 °C 68.7 °F /  20.4 °C 29.8in /  1009.1hPa WNW 2.9mph /  4.7km/h 5mph /  8km/h 59% 0in /  0.0mm 729 W/m2
15:09 84.7 °F /  29.3 °C 68.4 °F /  20.2 °C 29.8in /  1009.5hPa NW 2.9mph /  4.7km/h 3mph /  4.8km/h 58% 0in /  0.0mm 522 W/m2
15:14 84.4 °F /  29.1 °C 68.5 °F /  20.3 °C 29.8in /  1009.5hPa West 4mph /  6.4km/h 8mph /  12.9km/h 59% 0in /  0.0mm 179 W/m2
15:19 83.7 °F /  28.7 °C 68.4 °F /  20.2 °C 29.8in /  1009.5hPa WSW 0.9mph /  1.4km/h 4mph /  6.4km/h 60% 0in /  0.0mm 162 W/m2
15:24 83.1 °F /  28.4 °C 68.4 °F /  20.2 °C 29.8in /  1009.8hPa West 4mph /  6.4km/h 8mph /  12.9km/h 61% 0in /  0.0mm 123 W/m2
15:29 82.4 °F /  28 °C 68 °F /  20 °C 29.8in /  1009.8hPa West 2mph /  3.2km/h 3mph /  4.8km/h 62% 0in /  0.0mm 88 W/m2
15:34 82 °F /  27.8 °C 68.2 °F /  20.1 °C 29.8in /  1010.2hPa WNW 2.9mph /  4.7km/h 7mph /  11.3km/h 63% 0in /  0.0mm 76 W/m2
15:39 81.7 °F /  27.6 °C 67.8 °F /  19.9 °C 29.8in /  1009.8hPa NW 2.9mph /  4.7km/h 4mph /  6.4km/h 63% 0in /  0.0mm 56 W/m2
15:44 81.1 °F /  27.3 °C 68.2 °F /  20.1 °C 29.8in /  1010.2hPa WSW 2mph /  3.2km/h 7mph /  11.3km/h 65% 0in /  0.0mm 30 W/m2
15:49 80.2 °F /  26.8 °C 65.5 °F /  18.6 °C 29.8in /  1010.5hPa NNW 0.9mph /  1.4km/h 14mph /  22.5km/h 61% 0in /  0.0mm 12 W/m2
15:54 76.6 °F /  24.8 °C 63.5 °F /  17.5 °C 29.9in /  1010.8hPa WNW 6mph /  9.7km/h 11mph /  17.7km/h 64% 0in /  0.0mm 14 W/m2
15:59 74.5 °F /  23.6 °C 64 °F /  17.8 °C 29.9in /  1010.8hPa West 6.9mph /  11.1km/h 11mph /  17.7km/h 70% 0in /  0.0mm 12 W/m2
16:05 73.2 °F /  22.9 °C 63.7 °F /  17.6 °C 29.9in /  1010.8hPa NW 10.1mph /  16.3km/h 10mph /  16.1km/h 72% 0in /  0.0mm 11 W/m2
16:10 72.1 °F /  22.3 °C 63 °F /  17.2 °C 29.9in /  1010.8hPa West 11mph /  17.7km/h 17mph /  27.4km/h 73% 0in /  0.0mm 9 W/m2
16:15 71.2 °F /  21.8 °C 63.3 °F /  17.4 °C 29.9in /  1010.8hPa West 8.9mph /  14.3km/h 16mph /  25.7km/h 76% 0in /  0.0mm 7 W/m2
16:20 70.3 °F /  21.3 °C 63.9 °F /  17.7 °C 29.9in /  1010.8hPa West 6mph /  9.7km/h 17mph /  27.4km/h 80% 0in /  0.0mm 7 W/m2
16:25 69.4 °F /  20.8 °C 64 °F /  17.8 °C 29.9in /  1010.8hPa SW 2mph /  3.2km/h 7mph /  11.3km/h 83% 0in /  0.0mm 7 W/m2
16:30 68.9 °F /  20.5 °C 63.9 °F /  17.7 °C 29.9in /  1010.8hPa NW 4.9mph /  7.9km/h 11mph /  17.7km/h 84% 0.01in /  0.2mm 9 W/m2
16:35 68.5 °F /  20.3 °C 63.5 °F /  17.5 °C 29.9in /  1010.8hPa West 6.9mph /  11.1km/h 10mph /  16.1km/h 84% 0.02in /  0.5mm 11 W/m2
16:40 68.7 °F /  20.4 °C 63.7 °F /  17.6 °C 29.9in /  1010.8hPa West 4mph /  6.4km/h 11mph /  17.7km/h 84% 0.02in /  0.5mm 12 W/m2
16:45 68.5 °F /  20.3 °C 63.5 °F /  17.5 °C 29.9in /  1010.8hPa WSW 4mph /  6.4km/h 7mph /  11.3km/h 84% 0.02in /  0.5mm 14 W/m2
16:50 67.8 °F /  19.9 °C 62.4 °F /  16.9 °C 29.9in /  1010.8hPa West 6mph /  9.7km/h 8mph /  12.9km/h 83% 0.02in /  0.5mm 18 W/m2
16:55 67.8 °F /  19.9 °C 62.4 °F /  16.9 °C 29.9in /  1010.8hPa WSW 6.9mph /  11.1km/h 7mph /  11.3km/h 83% 0.02in /  0.5mm 23 W/m2
17:00 68 °F /  20 °C 63 °F /  17.2 °C 29.9in /  1010.8hPa West 4mph /  6.4km/h 4mph /  6.4km/h 84% 0.03in /  0.8mm 30 W/m2
17:05 67.8 °F /  19.9 °C 63.1 °F /  17.3 °C 29.9in /  1010.8hPa Calm   3mph /  4.8km/h 85% 0.03in /  0.8mm 37 W/m2
17:10 67.6 °F /  19.8 °C 63 °F /  17.2 °C 29.9in /  1010.8hPa SSE 0.9mph /  1.4km/h 2mph /  3.2km/h 85% 0.04in /  1.0mm 47 W/m2
17:15 67.5 °F /  19.7 °C 63.1 °F /  17.3 °C 29.9in /  1010.8hPa Calm   3mph /  4.8km/h 86% 0.04in /  1.0mm 62 W/m2
17:20 67.5 °F /  19.7 °C 63.9 °F /  17.7 °C 29.9in /  1010.8hPa West 2mph /  3.2km/h 3mph /  4.8km/h 88% 0.04in /  1.0mm 76 W/m2
17:25 67.5 °F /  19.7 °C 63.9 °F /  17.7 °C 29.8in /  1010.5hPa West 0.9mph /  1.4km/h 2mph /  3.2km/h 88% 0.04in /  1.0mm 91 W/m2
17:30 67.6 °F /  19.8 °C 64.6 °F /  18.1 °C 29.8in /  1010.5hPa Calm     90% 0.03in /  0.8mm 109 W/m2
17:35 67.6 °F /  19.8 °C 64.9 °F /  18.3 °C 29.8in /  1010.5hPa Calm     91% 0.02in /  0.5mm 144 W/m2
17:40 67.8 °F /  19.9 °C 65.1 °F /  18.4 °C 29.8in /  1010.5hPa Calm     91% 0.02in /  0.5mm 163 W/m2
17:45 68.2 °F /  20.1 °C 65.1 °F /  18.4 °C 29.9in /  1010.8hPa Calm   1mph /  1.6km/h 90% 0.02in /  0.5mm 162 W/m2
17:50 68.4 °F /  20.2 °C 64.9 °F /  18.3 °C 29.9in /  1010.8hPa Calm     89% 0.02in /  0.5mm 156 W/m2
17:55 68.7 °F /  20.4 °C 65.3 °F /  18.5 °C 29.9in /  1010.8hPa West 0.9mph /  1.4km/h 2mph /  3.2km/h 89% 0.02in /  0.5mm 160 W/m2
18:00 69.1 °F /  20.6 °C 65.3 °F /  18.5 °C 29.9in /  1010.8hPa Calm   1mph /  1.6km/h 88% 0.01in /  0.2mm 160 W/m2
18:05 69.4 °F /  20.8 °C 65.7 °F /  18.7 °C 29.9in /  1010.8hPa Calm     88% 0.01in /  0.2mm 137 W/m2
18:10 69.6 °F /  20.9 °C 65.8 °F /  18.8 °C 29.9in /  1010.8hPa ENE 2mph /  3.2km/h 2mph /  3.2km/h 88% 0in /  0.0mm 125 W/m2
18:15 69.8 °F /  21 °C 65.8 °F /  18.8 °C 29.9in /  1010.8hPa Calm   1mph /  1.6km/h 87% 0in /  0.0mm 104 W/m2
18:20 70 °F /  21.1 °C 66.2 °F /  19 °C 29.9in /  1010.8hPa SE 0.9mph /  1.4km/h 2mph /  3.2km/h 88% 0in /  0.0mm 98 W/m2
18:25 70.2 °F /  21.2 °C 66.4 °F /  19.1 °C 29.9in /  1010.8hPa NE 0.9mph /  1.4km/h 2mph /  3.2km/h 88% 0in /  0.0mm 79 W/m2
18:30 70.2 °F /  21.2 °C 66 °F /  18.9 °C 29.9in /  1010.8hPa Calm   1mph /  1.6km/h 87% 0in /  0.0mm 69 W/m2
18:35 70.2 °F /  21.2 °C 66.4 °F /  19.1 °C 29.9in /  1010.8hPa Calm     88% 0in /  0.0mm 77 W/m2
18:40 70 °F /  21.1 °C 66.2 °F /  19 °C 29.9in /  1010.8hPa Calm   1mph /  1.6km/h 88% 0in /  0.0mm 95 W/m2
18:45 70 °F /  21.1 °C 66.6 °F /  19.2 °C 29.9in /  1010.8hPa Calm     89% 0in /  0.0mm 105 W/m2
18:51 70 °F /  21.1 °C 66.6 °F /  19.2 °C 29.9in /  1010.8hPa Calm     89% 0in /  0.0mm 109 W/m2
18:56 70 °F /  21.1 °C 66.2 °F /  19 °C 29.9in /  1010.8hPa Calm   1mph /  1.6km/h 88% 0in /  0.0mm 98 W/m2
19:01 70.2 °F /  21.2 °C 66.4 °F /  19.1 °C 29.9in /  1010.8hPa Calm     88% 0in /  0.0mm 98 W/m2
19:06 70.3 °F /  21.3 °C 66.9 °F /  19.4 °C 29.8in /  1010.5hPa Calm   1mph /  1.6km/h 89% 0in /  0.0mm 121 W/m2
19:11 70.3 °F /  21.3 °C 66.6 °F /  19.2 °C 29.8in /  1010.5hPa ESE 2mph /  3.2km/h 2mph /  3.2km/h 88% 0in /  0.0mm 137 W/m2
19:16 70.5 °F /  21.4 °C 66.4 °F /  19.1 °C 29.8in /  1010.5hPa Calm     87% 0in /  0.0mm 142 W/m2
19:21 70.7 °F /  21.5 °C 66.6 °F /  19.2 °C 29.8in /  1010.5hPa Calm   1mph /  1.6km/h 87% 0in /  0.0mm 134 W/m2
19:26 70.9 °F /  21.6 °C 66.6 °F /  19.2 °C 29.8in /  1010.5hPa Calm   1mph /  1.6km/h 86% 0in /  0.0mm 128 W/m2
19:31 71.1 °F /  21.7 °C 66.4 °F /  19.1 °C 29.8in /  1010.5hPa East 0.9mph /  1.4km/h 2mph /  3.2km/h 85% 0in /  0.0mm 107 W/m2
19:36 71.1 °F /  21.7 °C 66.4 °F /  19.1 °C 29.8in /  1010.5hPa Calm     85% 0in /  0.0mm 104 W/m2
19:41 71.1 °F /  21.7 °C 66.7 °F /  19.3 °C 29.8in /  1010.5hPa Calm   1mph /  1.6km/h 86% 0in /  0.0mm 116 W/m2
19:46 71.1 °F /  21.7 °C 66.7 °F /  19.3 °C 29.8in /  1010.5hPa ESE 0.9mph /  1.4km/h 2mph /  3.2km/h 86% 0in /  0.0mm 114 W/m2
19:51 71.1 °F /  21.7 °C 66.7 °F /  19.3 °C 29.8in /  1010.5hPa Calm     86% 0in /  0.0mm 104 W/m2
19:56 71.2 °F /  21.8 °C 66.9 °F /  19.4 °C 29.8in /  1010.5hPa Calm   1mph /  1.6km/h 86% 0in /  0.0mm 95 W/m2
20:01 71.2 °F /  21.8 °C 67.1 °F /  19.5 °C 29.8in /  1010.5hPa Calm   1mph /  1.6km/h 87% 0in /  0.0mm 93 W/m2
20:06 71.2 °F /  21.8 °C 67.1 °F /  19.5 °C 29.8in /  1010.5hPa Calm   1mph /  1.6km/h 87% 0in /  0.0mm 213 W/m2
20:11 72 °F /  22.2 °C 67.5 °F /  19.7 °C 29.8in /  1010.5hPa SE 0.9mph /  1.4km/h 3mph /  4.8km/h 86% 0in /  0.0mm 190 W/m2
20:16 72.1 °F /  22.3 °C 67.1 °F /  19.5 °C 29.8in /  1010.5hPa Calm   1mph /  1.6km/h 84% 0in /  0.0mm 148 W/m2
20:21 72.3 °F /  22.4 °C 67.3 °F /  19.6 °C 29.8in /  1010.5hPa Calm   3mph /  4.8km/h 84% 0in /  0.0mm 113 W/m2
20:31 72.7 °F /  22.6 °C 67.3 °F /  19.6 °C 29.8in /  1010.5hPa Calm   1mph /  1.6km/h 83% 0in /  0.0mm 72 W/m2
20:36 72.7 °F /  22.6 °C 67.3 °F /  19.6 °C 29.8in /  1010.5hPa Calm   1mph /  1.6km/h 83% 0in /  0.0mm 76 W/m2
20:41 72.7 °F /  22.6 °C 67.3 °F /  19.6 °C 29.8in /  1010.5hPa Calm     83% 0in /  0.0mm 67 W/m2
20:46 72.7 °F /  22.6 °C 67.3 °F /  19.6 °C 29.8in /  1010.5hPa Calm     83% 0in /  0.0mm 67 W/m2
20:51 72.5 °F /  22.5 °C 67.1 °F /  19.5 °C 29.8in /  1010.2hPa Calm   1mph /  1.6km/h 83% 0in /  0.0mm 49 W/m2
20:56 72.3 °F /  22.4 °C 66.9 °F /  19.4 °C 29.8in /  1010.2hPa Calm     83% 0in /  0.0mm 47 W/m2
21:01 72 °F /  22.2 °C 66.6 °F /  19.2 °C 29.8in /  1010.5hPa Calm   1mph /  1.6km/h 83% 0in /  0.0mm 23 W/m2
21:06 71.8 °F /  22.1 °C 66.7 °F /  19.3 °C 29.8in /  1010.5hPa SE 0.9mph /  1.4km/h 1mph /  1.6km/h 84% 0in /  0.0mm 25 W/m2
21:11 71.2 °F /  21.8 °C 66.6 °F /  19.2 °C 29.8in /  1010.5hPa Calm   1mph /  1.6km/h 85% 0in /  0.0mm 18 W/m2
21:16 70.9 °F /  21.6 °C 66.2 °F /  19 °C 29.8in /  1010.5hPa Calm   1mph /  1.6km/h 85% 0in /  0.0mm 14 W/m2
21:21 70.3 °F /  21.3 °C 66 °F /  18.9 °C 29.9in /  1010.8hPa Calm     86% 0in /  0.0mm 12 W/m2
21:26 70 °F /  21.1 °C 65.7 °F /  18.7 °C 29.9in /  1010.8hPa Calm   1mph /  1.6km/h 86% 0in /  0.0mm 9 W/m2
21:31 69.4 °F /  20.8 °C 65.5 °F /  18.6 °C 29.9in /  1010.8hPa Calm     87% 0in /  0.0mm 7 W/m2
21:36 69.3 °F /  20.7 °C 65.3 °F /  18.5 °C 29.9in /  1010.8hPa Calm     87% 0in /  0.0mm 5 W/m2
21:41 68.7 °F /  20.4 °C 64.9 °F /  18.3 °C 29.9in /  1010.8hPa Calm     88% 0in /  0.0mm 0 W/m2
21:46 68.2 °F /  20.1 °C 64.4 °F /  18 °C 29.9in /  1010.8hPa Calm     88% 0in /  0.0mm 0 W/m2
21:51 67.8 °F /  19.9 °C 64.4 °F /  18 °C 29.9in /  1010.8hPa Calm     89% 0in /  0.0mm 0 W/m2
21:56 67.5 °F /  19.7 °C 64 °F /  17.8 °C 29.9in /  1010.8hPa Calm     89% 0in /  0.0mm 0 W/m2
22:01 67.3 °F /  19.6 °C 64.2 °F /  17.9 °C 29.9in /  1010.8hPa Calm     90% 0in /  0.0mm 0 W/m2
22:06 66.7 °F /  19.3 °C 63.7 °F /  17.6 °C 29.9in /  1010.8hPa Calm     90% 0in /  0.0mm 0 W/m2
22:11 66.6 °F /  19.2 °C 63.9 °F /  17.7 °C 29.9in /  1010.8hPa Calm     91% 0in /  0.0mm 0 W/m2
22:16 66.4 °F /  19.1 °C 63.7 °F /  17.6 °C 29.9in /  1011.2hPa Calm     91% 0in /  0.0mm 0 W/m2
22:21 66.2 °F /  19 °C 63.9 °F /  17.7 °C 29.9in /  1010.8hPa Calm     92% 0in /  0.0mm 0 W/m2
22:26 66 °F /  18.9 °C 63.7 °F /  17.6 °C 29.9in /  1010.8hPa Calm     92% 0in /  0.0mm 0 W/m2
22:32 65.8 °F /  18.8 °C 63.5 °F /  17.5 °C 29.9in /  1010.8hPa Calm     92% 0in /  0.0mm 0 W/m2
22:37 65.7 °F /  18.7 °C 63.3 °F /  17.4 °C 29.9in /  1010.8hPa Calm     92% 0in /  0.0mm 0 W/m2
22:42 65.7 °F /  18.7 °C 63.5 °F /  17.5 °C 29.9in /  1010.8hPa Calm     93% 0in /  0.0mm 0 W/m2
22:47 65.5 °F /  18.6 °C 63.3 °F /  17.4 °C 29.9in /  1010.8hPa Calm     93% 0in /  0.0mm 0 W/m2
22:52 65.5 °F /  18.6 °C 63.3 °F /  17.4 °C 29.9in /  1010.8hPa Calm     93% 0in /  0.0mm 0 W/m2
22:57 65.3 °F /  18.5 °C 63.5 °F /  17.5 °C 29.9in /  1010.8hPa Calm     94% 0in /  0.0mm 0 W/m2
23:02 65.1 °F /  18.4 °C 63.3 °F /  17.4 °C 29.9in /  1010.8hPa Calm     94% 0in /  0.0mm 0 W/m2
23:07 65.1 °F /  18.4 °C 63.3 °F /  17.4 °C 29.9in /  1010.8hPa Calm     94% 0in /  0.0mm 0 W/m2
23:12 65.1 °F /  18.4 °C 63.3 °F /  17.4 °C 29.9in /  1010.8hPa Calm     94% 0in /  0.0mm 0 W/m2
23:17 65.1 °F /  18.4 °C 63.3 °F /  17.4 °C 29.8in /  1010.5hPa Calm     94% 0in /  0.0mm 0 W/m2
23:22 64.9 °F /  18.3 °C 63.1 °F /  17.3 °C 29.8in /  1010.5hPa Calm     94% 0in /  0.0mm 0 W/m2
23:27 64.9 °F /  18.3 °C 63.1 °F /  17.3 °C 29.8in /  1010.5hPa Calm     94% 0in /  0.0mm 0 W/m2
23:32 64.8 °F /  18.2 °C 63 °F /  17.2 °C 29.8in /  1010.5hPa Calm     94% 0in /  0.0mm 0 W/m2
23:37 64.6 °F /  18.1 °C 62.8 °F /  17.1 °C 29.8in /  1010.5hPa Calm     94% 0in /  0.0mm 0 W/m2
23:42 64.6 °F /  18.1 °C 62.8 °F /  17.1 °C 29.8in /  1010.5hPa Calm     94% 0in /  0.0mm 0 W/m2
23:47 64.6 °F /  18.1 °C 63.1 °F /  17.3 °C 29.8in /  1010.5hPa Calm     95% 0in /  0.0mm 0 W/m2
23:52 64.6 °F /  18.1 °C 63.1 °F /  17.3 °C 29.8in /  1010.5hPa Calm     95% 0in /  0.0mm 0 W/m2
23:57 64.4 °F /  18 °C 63 °F /  17.2 °C 29.8in /  1010.5hPa Calm     95% 0in /  0.0mm 0 W/m2
Juneau County Weather
Compliments of Weather Underground - 4 mb